Weather at Charleston International Airport

Public forecast

Using degrees Fahrenheit for public forecast. Weather courtesy of forecast.io.

Current aviation weather report (METAR) for Charleston International Airport

Report is more than 6 hours old.

2022/11/14 15:00 (retrieved 2 years ago)

KCHS 141500Z 02012KT 10SM BKN015 11/02 A3029 RMK AO2 T01060022

Aviation forecast (TAF) for Charleston International Airport

Forecast is more than 12 hours old.

2023/02/22 18:45 (retrieved 1 year ago)

TAF KCHS 221738Z 2218/2318 21009KT P6SM SKC FM221900 21011G18KT P6SM FEW040 SCT250 FM230000 20009KT P6SM FEW250 FM231600 23011G18KT P6SM SCT035